Ashby, Nebraska
Current Conditions -  °F | °C
As of 4:53 PM on Friday 21 Nov 2014 (Local Time) from KAIA Reporting Station
Clear Clear  
Wind Chill: -1°   Ceiling: Unl
Heat Index:   Visibility: 10mi
Dew Point: -8°   Wind: 9mph
Humidity: 46%   Direction: 250°WSW
Pressure: 29.87"   Gusts: NA
Location:  42.02°N, 101.93°W
Report Text: KAIA 212353Z AUTO 25008KT 10SM CLR 03/M08 A2987 RMK AO2 SLP134 T00281078 10144 20028 53004
Loading
Personal Weather Stations






























Interactive Weather Map New forecast layout! Learn more

10-Day Weather Forecast

Advertisements
Track Severe Weather on mobile